sensor_id;sensor_type;location;lat;lon;timestamp;temperature;humidity
318;DHT22;146;53.448;10.228;2023-09-18T00:00:22;19.10;1.00
318;DHT22;146;53.448;10.228;2023-09-18T00:02:48;19.10;1.00
318;DHT22;146;53.448;10.228;2023-09-18T00:05:17;19.10;1.00
318;DHT22;146;53.448;10.228;2023-09-18T00:07:44;19.10;1.00
318;DHT22;146;53.448;10.228;2023-09-18T00:10:11;19.10;1.00
318;DHT22;146;53.448;10.228;2023-09-18T00:12:39;19.10;1.00
318;DHT22;146;53.448;10.228;2023-09-18T00:15:07;19.10;1.00
318;DHT22;146;53.448;10.228;2023-09-18T00:17:35;19.10;1.00
318;DHT22;146;53.448;10.228;2023-09-18T00:20:02;19.10;1.00
318;DHT22;146;53.448;10.228;2023-09-18T00:22:32;19.00;1.00
318;DHT22;146;53.448;10.228;2023-09-18T00:24:58;19.00;1.00
318;DHT22;146;53.448;10.228;2023-09-18T00:27:29;19.00;1.00
318;DHT22;146;53.448;10.228;2023-09-18T00:29:56;19.00;1.00
318;DHT22;146;53.448;10.228;2023-09-18T00:32:23;18.90;1.00
318;DHT22;146;53.448;10.228;2023-09-18T00:34:49;18.90;1.00
318;DHT22;146;53.448;10.228;2023-09-18T00:37:16;18.90;1.00
318;DHT22;146;53.448;10.228;2023-09-18T00:39:44;18.80;1.00
318;DHT22;146;53.448;10.228;2023-09-18T00:42:11;18.80;1.00
318;DHT22;146;53.448;10.228;2023-09-18T00:44:39;18.90;1.00
318;DHT22;146;53.448;10.228;2023-09-18T00:47:07;18.80;1.00
318;DHT22;146;53.448;10.228;2023-09-18T00:49:34;18.80;1.00
318;DHT22;146;53.448;10.228;2023-09-18T00:52:01;18.80;1.00
318;DHT22;146;53.448;10.228;2023-09-18T00:54:29;18.70;1.00
318;DHT22;146;53.448;10.228;2023-09-18T00:56:59;18.70;1.00
318;DHT22;146;53.448;10.228;2023-09-18T00:59:26;18.70;1.00
318;DHT22;146;53.448;10.228;2023-09-18T01:01:54;18.70;1.00
318;DHT22;146;53.448;10.228;2023-09-18T01:04:21;18.60;1.00
318;DHT22;146;53.448;10.228;2023-09-18T01:06:51;18.60;1.00
318;DHT22;146;53.448;10.228;2023-09-18T01:09:18;18.60;1.00
318;DHT22;146;53.448;10.228;2023-09-18T01:11:52;18.60;1.00
318;DHT22;146;53.448;10.228;2023-09-18T01:14:29;18.60;1.00
318;DHT22;146;53.448;10.228;2023-09-18T01:16:58;18.60;1.00
318;DHT22;146;53.448;10.228;2023-09-18T01:19:40;18.50;1.00
318;DHT22;146;53.448;10.228;2023-09-18T01:22:08;18.50;1.00
318;DHT22;146;53.448;10.228;2023-09-18T01:24:38;18.50;1.00
318;DHT22;146;53.448;10.228;2023-09-18T01:27:08;18.50;1.00
318;DHT22;146;53.448;10.228;2023-09-18T01:29:35;18.50;1.00
318;DHT22;146;53.448;10.228;2023-09-18T01:32:03;18.40;1.00
318;DHT22;146;53.448;10.228;2023-09-18T01:34:32;18.40;1.00
318;DHT22;146;53.448;10.228;2023-09-18T01:37:02;18.40;1.00
318;DHT22;146;53.448;10.228;2023-09-18T01:39:31;18.40;1.00
318;DHT22;146;53.448;10.228;2023-09-18T01:42:00;18.40;1.00
318;DHT22;146;53.448;10.228;2023-09-18T01:44:28;18.40;1.00
318;DHT22;146;53.448;10.228;2023-09-18T01:46:57;18.30;1.00
318;DHT22;146;53.448;10.228;2023-09-18T01:49:28;18.30;1.00
318;DHT22;146;53.448;10.228;2023-09-18T01:51:55;18.30;1.00
318;DHT22;146;53.448;10.228;2023-09-18T01:54:22;18.30;1.00
318;DHT22;146;53.448;10.228;2023-09-18T01:56:49;18.30;1.00
318;DHT22;146;53.448;10.228;2023-09-18T01:59:17;18.20;1.00
318;DHT22;146;53.448;10.228;2023-09-18T02:01:44;18.30;1.00
318;DHT22;146;53.448;10.228;2023-09-18T02:04:11;18.20;1.00
318;DHT22;146;53.448;10.228;2023-09-18T02:06:37;18.20;1.00
318;DHT22;146;53.448;10.228;2023-09-18T02:09:05;18.20;1.00
318;DHT22;146;53.448;10.228;2023-09-18T02:11:33;18.20;1.00
318;DHT22;146;53.448;10.228;2023-09-18T02:14:00;18.10;1.00
318;DHT22;146;53.448;10.228;2023-09-18T02:16:33;18.10;1.00
318;DHT22;146;53.448;10.228;2023-09-18T02:19:00;18.10;1.00
318;DHT22;146;53.448;10.228;2023-09-18T02:21:27;18.10;1.00
318;DHT22;146;53.448;10.228;2023-09-18T02:23:54;18.10;1.00
318;DHT22;146;53.448;10.228;2023-09-18T02:26:22;18.10;1.00
318;DHT22;146;53.448;10.228;2023-09-18T02:28:51;18.10;1.00
318;DHT22;146;53.448;10.228;2023-09-18T02:31:18;18.10;1.00
318;DHT22;146;53.448;10.228;2023-09-18T02:33:46;18.00;1.00
318;DHT22;146;53.448;10.228;2023-09-18T02:36:13;18.00;1.00
318;DHT22;146;53.448;10.228;2023-09-18T02:38:40;18.00;1.00
318;DHT22;146;53.448;10.228;2023-09-18T02:41:06;18.00;1.00
318;DHT22;146;53.448;10.228;2023-09-18T02:43:33;18.00;1.00
318;DHT22;146;53.448;10.228;2023-09-18T02:46:00;18.00;1.00
318;DHT22;146;53.448;10.228;2023-09-18T02:48:27;17.90;1.00
318;DHT22;146;53.448;10.228;2023-09-18T02:50:55;17.90;1.00
318;DHT22;146;53.448;10.228;2023-09-18T02:53:23;17.90;1.00
318;DHT22;146;53.448;10.228;2023-09-18T02:55:52;17.90;1.00
318;DHT22;146;53.448;10.228;2023-09-18T02:58:19;17.90;1.00
318;DHT22;146;53.448;10.228;2023-09-18T03:00:47;17.90;1.00
318;DHT22;146;53.448;10.228;2023-09-18T03:03:15;17.90;1.00
318;DHT22;146;53.448;10.228;2023-09-18T03:05:43;17.90;1.00
318;DHT22;146;53.448;10.228;2023-09-18T03:08:13;17.90;1.00
318;DHT22;146;53.448;10.228;2023-09-18T03:10:41;17.90;1.00
318;DHT22;146;53.448;10.228;2023-09-18T03:13:10;17.90;1.00
318;DHT22;146;53.448;10.228;2023-09-18T03:15:44;17.90;1.00
318;DHT22;146;53.448;10.228;2023-09-18T03:18:11;17.90;1.00
318;DHT22;146;53.448;10.228;2023-09-18T03:20:38;17.80;1.00
318;DHT22;146;53.448;10.228;2023-09-18T03:23:05;17.80;1.00
318;DHT22;146;53.448;10.228;2023-09-18T03:25:33;17.80;1.00
318;DHT22;146;53.448;10.228;2023-09-18T03:28:00;17.80;1.00
318;DHT22;146;53.448;10.228;2023-09-18T03:30:27;17.80;1.00
318;DHT22;146;53.448;10.228;2023-09-18T03:32:54;17.90;1.00
318;DHT22;146;53.448;10.228;2023-09-18T03:35:21;17.90;1.00
318;DHT22;146;53.448;10.228;2023-09-18T03:37:49;17.90;1.00
318;DHT22;146;53.448;10.228;2023-09-18T03:40:18;17.90;1.00
318;DHT22;146;53.448;10.228;2023-09-18T03:42:46;17.90;1.00
318;DHT22;146;53.448;10.228;2023-09-18T03:45:14;17.90;1.00
318;DHT22;146;53.448;10.228;2023-09-18T03:47:42;17.80;1.00
318;DHT22;146;53.448;10.228;2023-09-18T03:50:10;17.80;1.00
318;DHT22;146;53.448;10.228;2023-09-18T03:52:38;17.80;1.00
318;DHT22;146;53.448;10.228;2023-09-18T03:55:06;17.80;1.00
318;DHT22;146;53.448;10.228;2023-09-18T03:57:33;17.80;1.00
318;DHT22;146;53.448;10.228;2023-09-18T04:00:01;17.80;1.00
318;DHT22;146;53.448;10.228;2023-09-18T04:02:28;17.70;1.00
318;DHT22;146;53.448;10.228;2023-09-18T04:04:55;17.70;1.00
318;DHT22;146;53.448;10.228;2023-09-18T04:07:22;17.80;1.00
318;DHT22;146;53.448;10.228;2023-09-18T04:09:49;17.80;1.00
318;DHT22;146;53.448;10.228;2023-09-18T04:12:16;17.80;1.00
318;DHT22;146;53.448;10.228;2023-09-18T04:14:43;17.80;1.00
318;DHT22;146;53.448;10.228;2023-09-18T04:17:11;17.80;1.00
318;DHT22;146;53.448;10.228;2023-09-18T04:19:38;17.80;1.00
318;DHT22;146;53.448;10.228;2023-09-18T04:22:04;17.70;1.00
318;DHT22;146;53.448;10.228;2023-09-18T04:24:31;17.80;1.00
318;DHT22;146;53.448;10.228;2023-09-18T04:26:58;17.80;1.00
318;DHT22;146;53.448;10.228;2023-09-18T04:29:25;17.80;1.00
318;DHT22;146;53.448;10.228;2023-09-18T04:31:52;17.70;1.00
318;DHT22;146;53.448;10.228;2023-09-18T04:34:21;17.80;1.00
318;DHT22;146;53.448;10.228;2023-09-18T04:36:48;17.80;1.00
318;DHT22;146;53.448;10.228;2023-09-18T04:39:15;17.70;1.00
318;DHT22;146;53.448;10.228;2023-09-18T04:41:41;17.70;1.00
318;DHT22;146;53.448;10.228;2023-09-18T04:44:08;17.80;1.00
318;DHT22;146;53.448;10.228;2023-09-18T04:46:38;17.80;1.00
318;DHT22;146;53.448;10.228;2023-09-18T04:49:05;17.70;1.00
318;DHT22;146;53.448;10.228;2023-09-18T04:51:33;17.80;1.00
318;DHT22;146;53.448;10.228;2023-09-18T04:54:00;17.80;1.00
318;DHT22;146;53.448;10.228;2023-09-18T04:56:27;17.80;1.00
318;DHT22;146;53.448;10.228;2023-09-18T04:58:55;17.80;1.00
318;DHT22;146;53.448;10.228;2023-09-18T05:01:23;17.80;1.00
318;DHT22;146;53.448;10.228;2023-09-18T05:03:50;17.90;1.00
318;DHT22;146;53.448;10.228;2023-09-18T05:06:17;17.80;1.00
318;DHT22;146;53.448;10.228;2023-09-18T05:08:45;17.90;1.00
318;DHT22;146;53.448;10.228;2023-09-18T05:11:12;17.90;1.00
318;DHT22;146;53.448;10.228;2023-09-18T05:13:39;17.90;1.00
318;DHT22;146;53.448;10.228;2023-09-18T05:16:06;17.80;1.00
318;DHT22;146;53.448;10.228;2023-09-18T05:18:33;17.90;1.00
318;DHT22;146;53.448;10.228;2023-09-18T05:20:59;17.80;1.00
318;DHT22;146;53.448;10.228;2023-09-18T05:23:26;17.80;1.00
318;DHT22;146;53.448;10.228;2023-09-18T05:25:54;17.80;1.00
318;DHT22;146;53.448;10.228;2023-09-18T05:28:21;17.90;1.00
318;DHT22;146;53.448;10.228;2023-09-18T05:30:48;17.90;1.00
318;DHT22;146;53.448;10.228;2023-09-18T05:33:15;17.90;1.00
318;DHT22;146;53.448;10.228;2023-09-18T05:35:42;17.90;1.00
318;DHT22;146;53.448;10.228;2023-09-18T05:38:10;17.90;1.00
318;DHT22;146;53.448;10.228;2023-09-18T05:40:39;17.90;1.00
318;DHT22;146;53.448;10.228;2023-09-18T05:43:07;17.90;1.00
318;DHT22;146;53.448;10.228;2023-09-18T05:45:34;17.90;1.00
318;DHT22;146;53.448;10.228;2023-09-18T05:48:00;18.00;1.00
318;DHT22;146;53.448;10.228;2023-09-18T05:50:30;18.00;1.00
318;DHT22;146;53.448;10.228;2023-09-18T05:52:57;18.00;1.00
318;DHT22;146;53.448;10.228;2023-09-18T05:55:26;18.00;1.00
318;DHT22;146;53.448;10.228;2023-09-18T05:57:53;18.00;1.00
318;DHT22;146;53.448;10.228;2023-09-18T06:00:21;18.10;1.00
318;DHT22;146;53.448;10.228;2023-09-18T06:02:48;18.20;1.00
318;DHT22;146;53.448;10.228;2023-09-18T06:05:17;18.20;1.00
318;DHT22;146;53.448;10.228;2023-09-18T06:07:47;18.20;1.00
318;DHT22;146;53.448;10.228;2023-09-18T06:10:13;18.30;1.00
318;DHT22;146;53.448;10.228;2023-09-18T06:12:40;18.30;1.00
318;DHT22;146;53.448;10.228;2023-09-18T06:15:11;18.30;1.00
318;DHT22;146;53.448;10.228;2023-09-18T06:17:41;18.30;1.00
318;DHT22;146;53.448;10.228;2023-09-18T06:20:09;18.40;1.00
318;DHT22;146;53.448;10.228;2023-09-18T06:22:39;18.50;1.00
318;DHT22;146;53.448;10.228;2023-09-18T06:25:06;18.50;1.00
318;DHT22;146;53.448;10.228;2023-09-18T06:27:35;18.60;1.00
318;DHT22;146;53.448;10.228;2023-09-18T06:30:04;18.60;1.00
318;DHT22;146;53.448;10.228;2023-09-18T06:32:31;18.70;1.00
318;DHT22;146;53.448;10.228;2023-09-18T06:35:00;18.80;1.00
318;DHT22;146;53.448;10.228;2023-09-18T06:37:27;18.80;1.00
318;DHT22;146;53.448;10.228;2023-09-18T06:39:56;18.90;1.00
318;DHT22;146;53.448;10.228;2023-09-18T06:42:23;18.90;1.00
318;DHT22;146;53.448;10.228;2023-09-18T06:44:50;19.00;1.00
318;DHT22;146;53.448;10.228;2023-09-18T06:47:18;19.00;1.00
318;DHT22;146;53.448;10.228;2023-09-18T06:49:45;19.10;1.00
318;DHT22;146;53.448;10.228;2023-09-18T06:52:20;19.10;1.00
318;DHT22;146;53.448;10.228;2023-09-18T06:54:46;19.10;1.00
318;DHT22;146;53.448;10.228;2023-09-18T06:57:13;19.10;1.00
318;DHT22;146;53.448;10.228;2023-09-18T06:59:40;19.20;1.00
318;DHT22;146;53.448;10.228;2023-09-18T07:02:07;19.30;1.00
318;DHT22;146;53.448;10.228;2023-09-18T07:04:33;19.40;1.00
318;DHT22;146;53.448;10.228;2023-09-18T07:07:03;19.40;1.00
318;DHT22;146;53.448;10.228;2023-09-18T07:09:32;19.60;1.00
318;DHT22;146;53.448;10.228;2023-09-18T07:11:59;19.70;1.00
318;DHT22;146;53.448;10.228;2023-09-18T07:14:26;19.80;1.00
318;DHT22;146;53.448;10.228;2023-09-18T07:16:53;19.80;1.00
318;DHT22;146;53.448;10.228;2023-09-18T07:19:19;19.90;1.00
318;DHT22;146;53.448;10.228;2023-09-18T07:21:46;20.00;1.00
318;DHT22;146;53.448;10.228;2023-09-18T07:24:13;20.10;1.00
318;DHT22;146;53.448;10.228;2023-09-18T07:26:45;20.30;1.00
318;DHT22;146;53.448;10.228;2023-09-18T07:29:13;20.30;1.00
318;DHT22;146;53.448;10.228;2023-09-18T07:31:41;20.40;1.00
318;DHT22;146;53.448;10.228;2023-09-18T07:34:08;20.40;1.00
318;DHT22;146;53.448;10.228;2023-09-18T07:36:34;20.50;1.00
318;DHT22;146;53.448;10.228;2023-09-18T07:39:01;20.50;1.00
318;DHT22;146;53.448;10.228;2023-09-18T07:41:30;20.50;1.00
318;DHT22;146;53.448;10.228;2023-09-18T07:43:59;20.60;1.00
318;DHT22;146;53.448;10.228;2023-09-18T07:46:26;20.60;1.00
318;DHT22;146;53.448;10.228;2023-09-18T07:48:55;20.70;1.00
318;DHT22;146;53.448;10.228;2023-09-18T07:51:22;20.80;1.00
318;DHT22;146;53.448;10.228;2023-09-18T07:53:49;20.80;1.00
318;DHT22;146;53.448;10.228;2023-09-18T07:56:16;20.80;1.00
318;DHT22;146;53.448;10.228;2023-09-18T07:58:44;20.80;1.00
318;DHT22;146;53.448;10.228;2023-09-18T08:01:13;20.90;1.00
318;DHT22;146;53.448;10.228;2023-09-18T08:03:42;20.90;1.00
318;DHT22;146;53.448;10.228;2023-09-18T08:06:08;21.00;1.00
318;DHT22;146;53.448;10.228;2023-09-18T08:08:37;21.10;1.00
318;DHT22;146;53.448;10.228;2023-09-18T08:11:07;21.20;1.00
318;DHT22;146;53.448;10.228;2023-09-18T08:13:35;21.10;1.00
318;DHT22;146;53.448;10.228;2023-09-18T08:16:02;21.20;1.00
318;DHT22;146;53.448;10.228;2023-09-18T08:18:30;21.10;1.00
318;DHT22;146;53.448;10.228;2023-09-18T08:20:57;21.10;1.00
318;DHT22;146;53.448;10.228;2023-09-18T08:23:25;21.10;1.00
318;DHT22;146;53.448;10.228;2023-09-18T08:25:52;21.10;1.00
318;DHT22;146;53.448;10.228;2023-09-18T08:28:21;21.10;1.00
318;DHT22;146;53.448;10.228;2023-09-18T08:30:48;21.00;1.00
318;DHT22;146;53.448;10.228;2023-09-18T08:33:15;21.10;1.00
318;DHT22;146;53.448;10.228;2023-09-18T08:35:43;21.10;1.00
318;DHT22;146;53.448;10.228;2023-09-18T08:38:12;21.10;1.00
318;DHT22;146;53.448;10.228;2023-09-18T08:40:40;21.10;1.00
318;DHT22;146;53.448;10.228;2023-09-18T08:43:08;21.10;1.00
318;DHT22;146;53.448;10.228;2023-09-18T08:45:43;21.10;1.00
318;DHT22;146;53.448;10.228;2023-09-18T08:48:12;21.10;1.00
318;DHT22;146;53.448;10.228;2023-09-18T08:50:40;21.20;1.00
318;DHT22;146;53.448;10.228;2023-09-18T08:53:09;21.20;1.00
318;DHT22;146;53.448;10.228;2023-09-18T08:55:37;21.20;1.00
318;DHT22;146;53.448;10.228;2023-09-18T08:58:06;21.30;1.00
318;DHT22;146;53.448;10.228;2023-09-18T09:00:33;21.40;1.00
318;DHT22;146;53.448;10.228;2023-09-18T09:03:01;21.50;1.00
318;DHT22;146;53.448;10.228;2023-09-18T09:05:28;21.50;1.00
318;DHT22;146;53.448;10.228;2023-09-18T09:07:55;21.50;1.00
318;DHT22;146;53.448;10.228;2023-09-18T09:10:23;21.60;1.00
318;DHT22;146;53.448;10.228;2023-09-18T09:12:55;21.60;1.00
318;DHT22;146;53.448;10.228;2023-09-18T09:15:26;21.60;1.00
318;DHT22;146;53.448;10.228;2023-09-18T09:18:02;21.50;1.00
318;DHT22;146;53.448;10.228;2023-09-18T09:20:30;21.60;1.00
318;DHT22;146;53.448;10.228;2023-09-18T09:23:01;21.60;1.00
318;DHT22;146;53.448;10.228;2023-09-18T09:25:30;21.70;1.00
318;DHT22;146;53.448;10.228;2023-09-18T09:27:59;21.80;1.00
318;DHT22;146;53.448;10.228;2023-09-18T09:30:27;21.90;1.00
318;DHT22;146;53.448;10.228;2023-09-18T09:32:55;22.00;1.00
318;DHT22;146;53.448;10.228;2023-09-18T09:35:24;22.10;1.00
318;DHT22;146;53.448;10.228;2023-09-18T09:37:53;22.10;1.00
318;DHT22;146;53.448;10.228;2023-09-18T09:40:21;22.10;1.00
318;DHT22;146;53.448;10.228;2023-09-18T09:42:55;22.10;1.00
318;DHT22;146;53.448;10.228;2023-09-18T09:45:28;22.20;1.00
318;DHT22;146;53.448;10.228;2023-09-18T09:48:01;22.10;1.00
318;DHT22;146;53.448;10.228;2023-09-18T09:50:30;22.20;1.00
318;DHT22;146;53.448;10.228;2023-09-18T09:52:58;22.20;1.00
318;DHT22;146;53.448;10.228;2023-09-18T09:55:26;22.20;1.00
318;DHT22;146;53.448;10.228;2023-09-18T09:57:56;22.20;1.00
318;DHT22;146;53.448;10.228;2023-09-18T10:00:30;22.20;1.00
318;DHT22;146;53.448;10.228;2023-09-18T10:03:07;22.30;1.00
318;DHT22;146;53.448;10.228;2023-09-18T10:05:36;22.30;1.00
318;DHT22;146;53.448;10.228;2023-09-18T10:08:07;22.30;1.00
318;DHT22;146;53.448;10.228;2023-09-18T10:10:36;22.40;1.00
318;DHT22;146;53.448;10.228;2023-09-18T10:13:17;22.50;1.00
318;DHT22;146;53.448;10.228;2023-09-18T10:15:44;22.60;1.00
318;DHT22;146;53.448;10.228;2023-09-18T10:18:18;22.60;1.00
318;DHT22;146;53.448;10.228;2023-09-18T10:20:48;22.50;1.00
318;DHT22;146;53.448;10.228;2023-09-18T10:23:24;22.50;1.00
318;DHT22;146;53.448;10.228;2023-09-18T10:25:55;22.50;1.00
318;DHT22;146;53.448;10.228;2023-09-18T10:28:27;22.60;1.00
318;DHT22;146;53.448;10.228;2023-09-18T10:30:57;22.60;1.00
318;DHT22;146;53.448;10.228;2023-09-18T10:33:25;22.70;1.00
318;DHT22;146;53.448;10.228;2023-09-18T10:35:53;22.60;1.00
318;DHT22;146;53.448;10.228;2023-09-18T10:38:23;22.60;1.00
318;DHT22;146;53.448;10.228;2023-09-18T10:40:56;22.70;1.00
318;DHT22;146;53.448;10.228;2023-09-18T10:43:28;22.90;1.00
318;DHT22;146;53.448;10.228;2023-09-18T10:45:55;23.00;1.00
318;DHT22;146;53.448;10.228;2023-09-18T10:48:22;23.10;1.00
318;DHT22;146;53.448;10.228;2023-09-18T10:50:50;23.20;1.00
318;DHT22;146;53.448;10.228;2023-09-18T10:53:18;23.30;1.00
318;DHT22;146;53.448;10.228;2023-09-18T10:55:48;23.30;1.00
318;DHT22;146;53.448;10.228;2023-09-18T10:58:23;23.40;1.00
318;DHT22;146;53.448;10.228;2023-09-18T11:00:53;23.40;1.00
318;DHT22;146;53.448;10.228;2023-09-18T11:03:24;23.40;1.00
318;DHT22;146;53.448;10.228;2023-09-18T11:06:03;23.40;1.00
318;DHT22;146;53.448;10.228;2023-09-18T11:08:32;23.40;1.00
318;DHT22;146;53.448;10.228;2023-09-18T11:11:03;23.50;1.00
318;DHT22;146;53.448;10.228;2023-09-18T11:13:37;23.60;1.00
318;DHT22;146;53.448;10.228;2023-09-18T11:16:16;23.60;1.00
318;DHT22;146;53.448;10.228;2023-09-18T11:18:47;23.70;1.00
318;DHT22;146;53.448;10.228;2023-09-18T11:21:15;23.70;1.00
318;DHT22;146;53.448;10.228;2023-09-18T11:23:44;23.70;1.00
318;DHT22;146;53.448;10.228;2023-09-18T11:26:10;23.80;1.00
318;DHT22;146;53.448;10.228;2023-09-18T11:28:38;23.90;1.00
318;DHT22;146;53.448;10.228;2023-09-18T11:31:05;24.00;1.00
318;DHT22;146;53.448;10.228;2023-09-18T11:33:35;24.00;1.00
318;DHT22;146;53.448;10.228;2023-09-18T11:36:05;24.10;1.00
318;DHT22;146;53.448;10.228;2023-09-18T11:38:37;24.10;1.00
318;DHT22;146;53.448;10.228;2023-09-18T11:41:23;24.20;1.00
318;DHT22;146;53.448;10.228;2023-09-18T11:43:50;24.20;1.00
318;DHT22;146;53.448;10.228;2023-09-18T11:46:19;24.20;1.00
318;DHT22;146;53.448;10.228;2023-09-18T11:48:48;24.30;1.00
318;DHT22;146;53.448;10.228;2023-09-18T11:51:23;24.30;1.00
318;DHT22;146;53.448;10.228;2023-09-18T11:53:54;24.30;1.00
318;DHT22;146;53.448;10.228;2023-09-18T11:56:22;24.40;1.00
318;DHT22;146;53.448;10.228;2023-09-18T11:58:50;24.50;1.00
318;DHT22;146;53.448;10.228;2023-09-18T12:01:18;24.50;1.00
318;DHT22;146;53.448;10.228;2023-09-18T12:03:45;24.50;1.00
318;DHT22;146;53.448;10.228;2023-09-18T12:06:14;24.40;1.00
318;DHT22;146;53.448;10.228;2023-09-18T12:08:41;24.50;1.00
318;DHT22;146;53.448;10.228;2023-09-18T12:11:08;24.60;1.00
318;DHT22;146;53.448;10.228;2023-09-18T12:13:35;24.60;1.00
318;DHT22;146;53.448;10.228;2023-09-18T12:16:04;24.50;1.00
318;DHT22;146;53.448;10.228;2023-09-18T12:18:32;24.50;1.00
318;DHT22;146;53.448;10.228;2023-09-18T12:21:01;24.50;1.00
318;DHT22;146;53.448;10.228;2023-09-18T12:23:38;24.40;1.00
318;DHT22;146;53.448;10.228;2023-09-18T12:26:06;24.40;1.00
318;DHT22;146;53.448;10.228;2023-09-18T12:28:35;24.40;1.00
318;DHT22;146;53.448;10.228;2023-09-18T12:31:02;24.50;1.00
318;DHT22;146;53.448;10.228;2023-09-18T12:33:34;24.50;1.00
318;DHT22;146;53.448;10.228;2023-09-18T12:36:04;24.60;1.00
318;DHT22;146;53.448;10.228;2023-09-18T12:38:32;24.60;1.00
318;DHT22;146;53.448;10.228;2023-09-18T12:41:01;24.70;1.00
318;DHT22;146;53.448;10.228;2023-09-18T12:43:35;24.70;1.00
318;DHT22;146;53.448;10.228;2023-09-18T12:46:04;24.70;1.00
318;DHT22;146;53.448;10.228;2023-09-18T12:48:32;24.60;1.00
318;DHT22;146;53.448;10.228;2023-09-18T12:51:05;24.60;1.00
318;DHT22;146;53.448;10.228;2023-09-18T12:53:32;24.50;1.00
318;DHT22;146;53.448;10.228;2023-09-18T12:56:08;24.70;1.00
318;DHT22;146;53.448;10.228;2023-09-18T12:58:36;24.60;1.00
318;DHT22;146;53.448;10.228;2023-09-18T13:01:07;24.50;1.00
318;DHT22;146;53.448;10.228;2023-09-18T13:03:40;24.60;1.00
318;DHT22;146;53.448;10.228;2023-09-18T13:06:08;24.60;1.00
318;DHT22;146;53.448;10.228;2023-09-18T13:08:35;24.60;1.00
318;DHT22;146;53.448;10.228;2023-09-18T13:11:02;24.60;1.00
318;DHT22;146;53.448;10.228;2023-09-18T13:13:31;24.70;1.00
318;DHT22;146;53.448;10.228;2023-09-18T13:15:58;24.70;1.00
318;DHT22;146;53.448;10.228;2023-09-18T13:18:26;24.90;1.00
318;DHT22;146;53.448;10.228;2023-09-18T13:20:53;24.80;1.00
318;DHT22;146;53.448;10.228;2023-09-18T13:23:19;24.80;1.00
318;DHT22;146;53.448;10.228;2023-09-18T13:25:46;24.70;1.00
318;DHT22;146;53.448;10.228;2023-09-18T13:28:14;24.80;1.00
318;DHT22;146;53.448;10.228;2023-09-18T13:30:43;24.80;1.00
318;DHT22;146;53.448;10.228;2023-09-18T13:33:11;24.80;1.00
318;DHT22;146;53.448;10.228;2023-09-18T13:35:40;24.80;1.00
318;DHT22;146;53.448;10.228;2023-09-18T13:38:08;24.70;1.00
318;DHT22;146;53.448;10.228;2023-09-18T13:40:37;24.50;1.00
318;DHT22;146;53.448;10.228;2023-09-18T13:43:04;24.40;1.00
318;DHT22;146;53.448;10.228;2023-09-18T13:45:31;24.30;1.00
318;DHT22;146;53.448;10.228;2023-09-18T13:48:02;24.40;1.00
318;DHT22;146;53.448;10.228;2023-09-18T13:50:28;24.30;1.00
318;DHT22;146;53.448;10.228;2023-09-18T13:52:55;24.30;1.00
318;DHT22;146;53.448;10.228;2023-09-18T13:55:22;24.20;1.00
318;DHT22;146;53.448;10.228;2023-09-18T13:57:49;24.30;1.00
318;DHT22;146;53.448;10.228;2023-09-18T14:00:16;24.10;1.00
318;DHT22;146;53.448;10.228;2023-09-18T14:02:43;24.10;1.00
318;DHT22;146;53.448;10.228;2023-09-18T14:05:12;24.10;1.00
318;DHT22;146;53.448;10.228;2023-09-18T14:07:39;24.10;1.00
318;DHT22;146;53.448;10.228;2023-09-18T14:10:07;24.20;1.00
318;DHT22;146;53.448;10.228;2023-09-18T14:12:35;24.10;1.00
318;DHT22;146;53.448;10.228;2023-09-18T14:15:03;24.00;1.00
318;DHT22;146;53.448;10.228;2023-09-18T14:17:30;24.00;1.00
318;DHT22;146;53.448;10.228;2023-09-18T14:19:57;24.00;1.00
318;DHT22;146;53.448;10.228;2023-09-18T14:22:26;24.00;1.00
318;DHT22;146;53.448;10.228;2023-09-18T14:24:53;23.90;1.00
318;DHT22;146;53.448;10.228;2023-09-18T14:27:19;23.80;1.00
318;DHT22;146;53.448;10.228;2023-09-18T14:29:46;23.80;1.00
318;DHT22;146;53.448;10.228;2023-09-18T14:32:13;23.80;1.00
318;DHT22;146;53.448;10.228;2023-09-18T14:34:41;23.80;1.00
318;DHT22;146;53.448;10.228;2023-09-18T14:37:08;23.80;1.00
318;DHT22;146;53.448;10.228;2023-09-18T14:39:36;23.80;1.00
318;DHT22;146;53.448;10.228;2023-09-18T14:42:03;23.80;1.00
318;DHT22;146;53.448;10.228;2023-09-18T14:44:30;23.90;1.00
318;DHT22;146;53.448;10.228;2023-09-18T14:46:59;23.90;1.00
318;DHT22;146;53.448;10.228;2023-09-18T14:49:27;23.90;1.00
318;DHT22;146;53.448;10.228;2023-09-18T14:51:55;23.90;1.00
318;DHT22;146;53.448;10.228;2023-09-18T14:54:22;23.90;1.00
318;DHT22;146;53.448;10.228;2023-09-18T14:56:50;23.80;1.00
318;DHT22;146;53.448;10.228;2023-09-18T14:59:17;23.80;1.00
318;DHT22;146;53.448;10.228;2023-09-18T15:01:44;23.80;1.00
318;DHT22;146;53.448;10.228;2023-09-18T15:04:13;23.90;1.00
318;DHT22;146;53.448;10.228;2023-09-18T15:06:40;23.80;1.00
318;DHT22;146;53.448;10.228;2023-09-18T15:09:07;23.70;1.00
318;DHT22;146;53.448;10.228;2023-09-18T15:11:34;23.70;1.00
318;DHT22;146;53.448;10.228;2023-09-18T15:14:02;23.70;1.00
318;DHT22;146;53.448;10.228;2023-09-18T15:16:29;23.70;1.00
318;DHT22;146;53.448;10.228;2023-09-18T15:18:56;23.70;1.00
318;DHT22;146;53.448;10.228;2023-09-18T15:21:26;23.70;1.00
318;DHT22;146;53.448;10.228;2023-09-18T15:23:52;23.70;1.00
318;DHT22;146;53.448;10.228;2023-09-18T15:26:19;23.60;1.00
318;DHT22;146;53.448;10.228;2023-09-18T15:28:46;23.70;1.00
318;DHT22;146;53.448;10.228;2023-09-18T15:31:14;23.70;1.00
318;DHT22;146;53.448;10.228;2023-09-18T15:33:41;23.70;1.00
318;DHT22;146;53.448;10.228;2023-09-18T15:36:10;23.70;1.00
318;DHT22;146;53.448;10.228;2023-09-18T15:38:38;23.70;1.00
318;DHT22;146;53.448;10.228;2023-09-18T15:41:05;23.70;1.00
318;DHT22;146;53.448;10.228;2023-09-18T15:43:33;23.60;1.00
318;DHT22;146;53.448;10.228;2023-09-18T15:46:02;23.60;1.00
318;DHT22;146;53.448;10.228;2023-09-18T15:48:30;23.50;1.00
318;DHT22;146;53.448;10.228;2023-09-18T15:50:57;23.40;1.00
318;DHT22;146;53.448;10.228;2023-09-18T15:53:27;23.50;1.00
318;DHT22;146;53.448;10.228;2023-09-18T15:55:53;23.50;1.00
318;DHT22;146;53.448;10.228;2023-09-18T15:58:20;23.50;1.00
318;DHT22;146;53.448;10.228;2023-09-18T16:00:49;23.50;1.00
318;DHT22;146;53.448;10.228;2023-09-18T16:03:16;23.40;1.00
318;DHT22;146;53.448;10.228;2023-09-18T16:05:46;23.40;1.00
318;DHT22;146;53.448;10.228;2023-09-18T16:08:17;23.30;1.00
318;DHT22;146;53.448;10.228;2023-09-18T16:10:44;23.20;1.00
318;DHT22;146;53.448;10.228;2023-09-18T16:13:11;23.20;1.00
318;DHT22;146;53.448;10.228;2023-09-18T16:15:37;23.10;1.00
318;DHT22;146;53.448;10.228;2023-09-18T16:18:04;23.10;1.00
318;DHT22;146;53.448;10.228;2023-09-18T16:20:31;23.10;1.00
318;DHT22;146;53.448;10.228;2023-09-18T16:23:00;23.10;1.00
318;DHT22;146;53.448;10.228;2023-09-18T16:25:27;23.00;1.00
318;DHT22;146;53.448;10.228;2023-09-18T16:27:57;23.00;1.00
318;DHT22;146;53.448;10.228;2023-09-18T16:30:23;23.00;1.00
318;DHT22;146;53.448;10.228;2023-09-18T16:32:50;22.90;1.00
318;DHT22;146;53.448;10.228;2023-09-18T16:35:17;22.90;1.00
318;DHT22;146;53.448;10.228;2023-09-18T16:37:44;22.90;1.00
318;DHT22;146;53.448;10.228;2023-09-18T16:40:15;22.80;1.00